Time;durP1;ratioP1;P1;durP2;ratioP2;P2;SDS_P1;SDS_P2;PMS_P1;PMS_P2;Temp;Humidity;BMP_temperature;BMP_pressure;BME280_temperature;BME280_humidity;BME280_pressure;Samples;Min_cycle;Max_cycle;Signal;HPM_P1;HPM_P2
2022/03/12 00:02:08;;;;;;;33.35;20.83;;;;;;;-4.24;97.74;93851.09;5033963;28;20045;-87
2022/03/12 00:04:37;;;;;;;28.65;18.58;;;;;;;-4.21;98.03;93866.72;5033446;28;20493;-87
2022/03/12 00:07:09;;;;;;;28.77;17.60;;;;;;;-4.33;98.39;93850.00;5021446;28;20050;-88
2022/03/12 00:09:39;;;;;;;29.10;17.88;;;;;;;-4.36;98.65;93846.00;5013353;28;20046;-87
2022/03/12 00:12:07;;;;;;;32.78;18.55;;;;;;;-4.32;98.79;93856.63;5014073;28;20062;-87
2022/03/12 00:14:34;;;;;;;28.23;17.40;;;;;;;-4.41;99.40;93852.22;5014019;28;20042;-88
2022/03/12 00:17:03;;;;;;;27.98;18.00;;;;;;;-4.34;100.00;93859.25;5014184;28;20069;-87
2022/03/12 00:19:31;;;;;;;31.17;20.05;;;;;;;-4.35;100.00;93846.81;5014018;28;20421;-87
2022/03/12 00:24:43;;;;;;;28.05;17.50;;;;;;;-4.25;99.86;93860.34;5012052;28;20061;-87
2022/03/12 00:27:13;;;;;;;32.83;18.75;;;;;;;-4.27;99.35;93859.63;5013565;28;20046;-87
2022/03/12 00:29:44;;;;;;;27.90;16.33;;;;;;;-4.22;99.37;93856.81;5013905;28;20581;-87
2022/03/12 00:32:14;;;;;;;26.90;16.70;;;;;;;-4.20;99.37;93860.00;5013652;28;20429;-87
2022/03/12 00:34:43;;;;;;;29.98;17.85;;;;;;;-4.23;99.10;93855.19;5013886;28;20096;-87
2022/03/12 00:37:16;;;;;;;27.45;17.08;;;;;;;-4.35;98.77;93832.53;5013690;28;20053;-87
2022/03/12 00:39:47;;;;;;;25.85;15.70;;;;;;;-4.22;99.12;93859.31;5013227;28;20046;-87
2022/03/12 00:42:16;;;;;;;23.00;15.75;;;;;;;-4.20;98.38;93853.31;5013711;28;20057;-87
2022/03/12 00:44:44;;;;;;;26.02;17.27;;;;;;;-4.39;98.27;93820.31;5019662;28;20042;-88
2022/03/12 00:47:13;;;;;;;27.88;17.38;;;;;;;-4.22;98.53;93851.81;5033292;28;20050;-87
2022/03/12 00:49:44;;;;;;;32.78;20.55;;;;;;;-4.27;98.83;93852.09;5018306;28;20053;-87
2022/03/12 00:52:11;;;;;;;34.90;21.85;;;;;;;-4.29;99.13;93846.38;5013245;28;20137;-87
2022/03/12 00:54:41;;;;;;;32.70;20.23;;;;;;;-4.29;99.33;93833.84;5013179;28;20046;-88
2022/03/12 00:57:11;;;;;;;29.08;19.92;;;;;;;-4.15;98.52;93845.47;5016242;28;20050;-88
2022/03/12 00:59:39;;;;;;;31.27;19.10;;;;;;;-4.16;98.60;93839.63;5005503;28;20050;-88
2022/03/12 01:02:18;;;;;;;;;;;;;;;;;;;;;
2022/03/12 01:04:48;;;;;;;34.65;20.00;;;;;;;-4.11;98.55;93841.03;4990573;28;20054;-87
2022/03/12 01:07:19;;;;;;;34.13;19.77;;;;;;;-4.17;98.90;93829.72;5002265;28;20054;-88
2022/03/12 01:09:46;;;;;;;26.58;18.15;;;;;;;-4.07;99.02;93848.22;5005464;28;20045;-88
2022/03/12 01:12:14;;;;;;;30.67;19.50;;;;;;;-4.07;100.00;93854.97;5002257;28;20550;-87
2022/03/12 01:14:41;;;;;;;30.50;19.23;;;;;;;-4.11;100.00;93851.88;5001373;28;20045;-88
2022/03/12 01:17:11;;;;;;;33.63;19.73;;;;;;;-4.04;100.00;93855.56;5000380;28;20548;-88
2022/03/12 01:19:38;;;;;;;24.33;16.02;;;;;;;-4.17;100.00;93854.81;5002960;28;20054;-88
2022/03/12 01:22:06;;;;;;;28.00;17.90;;;;;;;-4.29;100.00;93853.91;5001092;28;20585;-87
2022/03/12 01:24:35;;;;;;;25.33;16.73;;;;;;;-4.29;100.00;93854.69;5002295;28;20046;-88
2022/03/12 01:27:02;;;;;;;23.02;15.98;;;;;;;-4.45;100.00;93852.44;5002613;28;20092;-86
2022/03/12 01:29:35;;;;;;;26.42;16.58;;;;;;;-4.89;100.00;93853.63;5000851;28;20506;-87
2022/03/12 01:32:02;;;;;;;26.02;16.35;;;;;;;-5.01;100.00;93852.72;4989519;28;20086;-87
2022/03/12 01:34:29;;;;;;;24.63;16.77;;;;;;;-5.28;100.00;93846.88;4999536;28;20049;-88
2022/03/12 01:37:20;;;;;;;;;;;;;;;;;;;;;
2022/03/12 01:39:50;;;;;;;27.98;18.63;;;;;;;-5.53;100.00;93820.91;4989829;28;20054;-87
2022/03/12 01:45:31;;;;;;;26.55;18.05;;;;;;;-5.30;100.00;93847.88;4992815;28;20121;-88
2022/03/12 01:47:59;;;;;;;27.75;18.17;;;;;;;-5.18;100.00;93843.81;4992608;28;20132;-87
2022/03/12 01:50:40;;;;;;;24.05;17.77;;;;;;;-5.24;100.00;93844.97;4992266;28;21133;-88
2022/03/12 01:53:20;;;;;;;26.58;18.00;;;;;;;-6.00;100.00;93735.41;4992748;28;20057;-87
2022/03/12 01:55:47;;;;;;;27.05;18.33;;;;;;;-5.06;100.00;93852.25;4992558;28;20507;-87
2022/03/12 01:58:14;;;;;;;26.15;19.42;;;;;;;-4.92;100.00;93852.13;4984240;28;20499;-87
2022/03/12 02:00:45;;;;;;;26.92;17.83;;;;;;;-4.86;100.00;93848.44;4973221;28;20415;-87
2022/03/12 02:03:13;;;;;;;29.23;19.60;;;;;;;-4.70;100.00;93845.72;4972984;28;20392;-88
2022/03/12 02:05:43;;;;;;;26.33;17.63;;;;;;;-4.57;100.00;93846.50;4973230;28;20102;-88
2022/03/12 02:08:13;;;;;;;26.60;18.08;;;;;;;-4.54;100.00;93829.69;4972881;28;20093;-88
2022/03/12 02:10:43;;;;;;;25.33;17.83;;;;;;;-4.42;100.00;93841.38;4972890;28;20495;-87
2022/03/12 02:13:13;;;;;;;23.92;17.60;;;;;;;-4.39;100.00;93838.69;4972816;28;20396;-88
2022/03/12 02:15:44;;;;;;;24.48;16.40;;;;;;;-4.51;100.00;93845.31;4972735;28;20058;-88
2022/03/12 02:18:13;;;;;;;21.63;15.93;;;;;;;-4.50;100.00;93841.13;4972815;28;20050;-88
2022/03/12 02:20:40;;;;;;;23.33;16.02;;;;;;;-4.89;100.00;93806.84;4972999;28;20093;-88
2022/03/12 02:23:14;;;;;;;30.27;19.52;;;;;;;-5.00;100.00;93826.78;4973087;28;20047;-87
2022/03/12 02:25:42;;;;;;;32.60;21.83;;;;;;;-4.86;100.00;93846.72;4972660;28;20054;-87
2022/03/12 02:28:17;;;;;;;26.15;18.77;;;;;;;-5.15;100.00;93836.88;4972886;28;20106;-88
2022/03/12 02:30:51;;;;;;;30.73;18.80;;;;;;;-5.08;100.00;93839.00;4972605;28;20087;-88
2022/03/12 02:33:26;;;;;;;23.52;17.05;;;;;;;-5.41;100.00;93831.81;4972603;28;20137;-88
2022/03/12 02:35:55;;;;;;;31.47;19.20;;;;;;;-5.19;100.00;93850.50;4972492;28;20081;-88
2022/03/12 02:38:22;;;;;;;27.67;20.00;;;;;;;-5.07;100.00;93845.59;4972208;28;20145;-87
2022/03/12 02:40:57;;;;;;;33.92;24.20;;;;;;;-4.99;100.00;93849.22;4972358;28;20134;-88
2022/03/12 02:43:43;;;;;;;28.02;19.15;;;;;;;-5.01;100.00;93846.03;4972614;28;20069;-88
2022/03/12 02:46:13;;;;;;;19.40;14.07;;;;;;;-5.26;100.00;93840.09;4972337;28;20077;-88
2022/03/12 02:48:40;;;;;;;20.48;13.50;;;;;;;-5.78;100.00;93857.44;4972263;28;20050;-88
2022/03/12 02:51:07;;;;;;;11.38;8.27;;;;;;;-6.30;100.00;93858.94;4972212;28;20487;-88
2022/03/12 02:53:34;;;;;;;9.68;6.97;;;;;;;-6.42;100.00;93862.16;4972308;28;20542;-87
2022/03/12 02:56:03;;;;;;;11.95;7.93;;;;;;;-6.48;100.00;93864.13;4964494;28;20118;-88
2022/03/12 02:58:38;;;;;;;11.35;8.07;;;;;;;-6.59;100.00;93859.75;4982873;28;20077;-87
2022/03/12 03:01:06;;;;;;;11.27;7.03;;;;;;;-6.89;100.00;93863.13;4984115;28;20174;-87
2022/03/12 03:03:41;;;;;;;14.32;9.05;;;;;;;-6.89;100.00;93869.81;4990518;28;20498;-88
2022/03/12 03:06:08;;;;;;;16.85;10.48;;;;;;;-6.81;100.00;93871.91;4991436;28;20137;-88
2022/03/12 03:08:36;;;;;;;17.08;10.73;;;;;;;-6.92;100.00;93870.81;4991351;28;20125;-88
2022/03/12 03:11:19;;;;;;;12.60;8.60;;;;;;;-7.11;100.00;93871.03;4991439;28;20407;-87
2022/03/12 03:13:48;;;;;;;10.88;7.55;;;;;;;-7.20;100.00;93867.38;4991449;28;20054;-87
2022/03/12 03:16:18;;;;;;;17.45;10.65;;;;;;;-7.34;100.00;93870.63;4991301;28;20046;-87
2022/03/12 03:18:53;;;;;;;11.07;7.57;;;;;;;-7.55;100.00;93832.69;4991230;28;20073;-88
2022/03/12 03:21:21;;;;;;;10.32;7.63;;;;;;;-7.50;100.00;93855.69;4991348;28;20081;-87
2022/03/12 03:23:48;;;;;;;13.10;8.15;;;;;;;-7.41;100.00;93872.66;4991153;28;20046;-87
2022/03/12 03:26:37;;;;;;;12.30;7.75;;;;;;;-7.64;100.00;93839.00;4991399;28;20057;-87
2022/03/12 03:29:07;;;;;;;12.50;8.48;;;;;;;-7.40;100.00;93881.72;4991364;28;20170;-87
2022/03/12 03:31:35;;;;;;;15.80;9.02;;;;;;;-7.39;100.00;93883.38;4991150;28;20047;-87
2022/03/12 03:34:02;;;;;;;12.05;7.90;;;;;;;-7.60;100.00;93847.09;4991232;28;20050;-87
2022/03/12 03:36:29;;;;;;;13.50;8.50;;;;;;;-7.35;100.00;93893.97;4991106;28;20046;-88
2022/03/12 03:38:58;;;;;;;11.52;7.38;;;;;;;-7.45;100.00;93887.88;4990837;28;20050;-87
2022/03/12 03:41:29;;;;;;;11.68;7.60;;;;;;;-7.47;100.00;93884.66;4991325;28;20085;-87
2022/03/12 03:43:55;;;;;;;25.00;13.80;;;;;;;-7.27;100.00;93896.06;4991055;28;20050;-88
2022/03/12 03:46:23;;;;;;;12.25;8.45;;;;;;;-7.33;100.00;93893.91;4990886;28;20050;-88
2022/03/12 03:48:52;;;;;;;14.10;9.52;;;;;;;-7.26;100.00;93893.47;4990913;28;20050;-88
2022/03/12 03:51:22;;;;;;;13.63;8.27;;;;;;;-7.16;100.00;93898.78;4990890;28;20495;-88
2022/03/12 03:53:49;;;;;;;14.25;9.02;;;;;;;-7.33;100.00;93868.94;4991166;28;20055;-88
2022/03/12 03:56:18;;;;;;;17.90;10.57;;;;;;;-6.95;100.00;93900.16;4991087;28;20050;-88
2022/03/12 03:58:46;;;;;;;14.07;9.27;;;;;;;-6.81;100.00;93901.88;4990770;28;20572;-87
2022/03/12 04:01:17;;;;;;;15.88;11.18;;;;;;;-7.15;100.00;93894.56;4990729;28;20977;-88
2022/03/12 04:03:48;;;;;;;19.83;12.20;;;;;;;-7.15;100.00;93900.38;4990648;28;20050;-88
2022/03/12 04:06:18;;;;;;;14.90;9.63;;;;;;;-6.90;100.00;93906.47;4990956;28;20050;-88
2022/03/12 04:08:45;;;;;;;12.65;8.73;;;;;;;-6.93;100.00;93894.19;4990813;28;20513;-88
2022/03/12 04:11:17;;;;;;;13.70;8.77;;;;;;;-6.88;100.00;93909.72;4990659;28;20062;-87
2022/03/12 04:13:44;;;;;;;14.23;8.75;;;;;;;-6.95;100.00;93908.44;4990999;28;20137;-87
2022/03/12 04:16:14;;;;;;;12.73;8.38;;;;;;;-6.78;100.00;93910.00;4994247;28;20501;-87
2022/03/12 04:18:42;;;;;;;12.70;8.32;;;;;;;-6.50;100.00;93900.09;4994215;28;20043;-88
2022/03/12 04:21:10;;;;;;;12.77;8.65;;;;;;;-6.56;100.00;93901.28;4994557;28;20054;-89
2022/03/12 04:23:37;;;;;;;12.52;8.70;;;;;;;-7.45;100.00;93800.53;4994473;28;20046;-88
2022/03/12 04:26:04;;;;;;;11.95;8.43;;;;;;;-6.76;100.00;93905.69;4994333;28;20058;-87
2022/03/12 04:28:34;;;;;;;13.90;8.20;;;;;;;-6.78;100.00;93919.16;4994699;28;20054;-88
2022/03/12 04:31:02;;;;;;;13.02;8.93;;;;;;;-6.80;100.00;93915.97;4986248;28;20051;-87
2022/03/12 04:33:30;;;;;;;20.73;10.73;;;;;;;-6.75;100.00;93879.81;4994349;28;20082;-88
2022/03/12 04:36:02;;;;;;;20.48;11.88;;;;;;;-6.40;100.00;93922.88;4994293;28;20058;-88
2022/03/12 04:38:29;;;;;;;23.08;11.77;;;;;;;-6.19;100.00;93928.31;4993998;28;20053;-88
2022/03/12 04:41:03;;;;;;;24.00;12.35;;;;;;;-6.13;100.00;93935.47;4994498;28;20545;-88
2022/03/12 04:43:31;;;;;;;23.30;13.00;;;;;;;-5.99;100.00;93923.78;4993761;28;20055;-88
2022/03/12 04:46:00;;;;;;;23.77;14.63;;;;;;;-5.85;100.00;93928.78;5000610;28;20071;-88
2022/03/12 04:48:30;;;;;;;25.33;14.63;;;;;;;-5.85;100.00;93912.97;5013582;28;20410;-88
2022/03/12 04:51:04;;;;;;;21.05;12.93;;;;;;;-5.65;100.00;93932.59;5013165;28;20518;-88
2022/03/12 04:53:33;;;;;;;33.70;17.05;;;;;;;-5.55;100.00;93942.06;5032874;28;20053;-88
2022/03/12 04:56:01;;;;;;;67.63;27.20;;;;;;;-5.52;100.00;93944.34;5025544;28;20050;-88
2022/03/12 04:58:28;;;;;;;85.30;31.95;;;;;;;-5.46;100.00;93945.69;5016392;28;20050;-88
2022/03/12 05:00:55;;;;;;;43.70;19.27;;;;;;;-5.53;100.00;93943.56;5012834;28;20461;-88
2022/03/12 05:03:25;;;;;;;25.83;14.02;;;;;;;-5.44;100.00;93943.88;5013116;28;20080;-88
2022/03/12 05:05:54;;;;;;;21.17;11.85;;;;;;;-5.67;100.00;93923.56;5012971;28;20076;-87
2022/03/12 05:08:24;;;;;;;20.13;10.52;;;;;;;-5.54;100.00;93946.97;5013394;28;20056;-88
2022/03/12 05:10:53;;;;;;;11.60;8.18;;;;;;;-6.28;100.00;93957.16;5012781;28;20461;-86
2022/03/12 05:13:22;;;;;;;13.07;8.68;;;;;;;-6.41;100.00;93952.06;5012342;28;21929;-87
2022/03/12 05:15:50;;;;;;;13.70;8.65;;;;;;;-6.48;100.00;93960.81;5010391;28;20124;-87
2022/03/12 05:18:26;;;;;;;17.60;9.75;;;;;;;-6.67;100.00;93963.56;5011281;28;20050;-87
2022/03/12 05:20:55;;;;;;;15.45;9.88;;;;;;;-6.83;100.00;93964.41;5012676;28;20092;-88
2022/03/12 05:23:23;;;;;;;18.88;9.48;;;;;;;-7.02;100.00;93945.44;5016799;28;20060;-87
2022/03/12 05:25:52;;;;;;;16.00;10.63;;;;;;;-7.10;100.00;93945.06;5011817;28;20053;-87
2022/03/12 05:28:34;;;;;;;18.13;10.57;;;;;;;-7.00;100.00;93962.81;5012789;28;20050;-87
2022/03/12 05:31:04;;;;;;;15.65;10.43;;;;;;;-6.92;100.00;93969.91;5012585;28;20498;-88
2022/03/12 05:33:32;;;;;;;16.90;9.98;;;;;;;-7.08;100.00;93965.78;5012254;28;20050;-87
2022/03/12 05:36:00;;;;;;;17.63;11.23;;;;;;;-7.04;100.00;93972.19;5029419;28;20053;-88
2022/03/12 05:38:31;;;;;;;18.35;10.75;;;;;;;-7.22;100.00;93929.06;5032395;28;20050;-87
2022/03/12 05:41:04;;;;;;;17.63;11.80;;;;;;;-7.04;100.00;93966.41;5018217;28;20507;-88
2022/03/12 05:43:31;;;;;;;17.73;11.65;;;;;;;-7.04;100.00;93982.16;4992693;28;20137;-88
2022/03/12 05:45:58;;;;;;;17.08;11.25;;;;;;;-7.04;100.00;93969.69;4992763;28;20085;-88
2022/03/12 05:48:28;;;;;;;21.83;17.40;;;;;;;-6.88;100.00;93954.69;4992752;28;20529;-87
2022/03/12 05:51:03;;;;;;;16.38;11.70;;;;;;;-6.40;100.00;93986.16;4998351;28;20135;-88
2022/03/12 05:53:49;;;;;;;16.75;11.35;;;;;;;-6.87;100.00;93905.50;5012072;28;20050;-88
2022/03/12 05:56:28;;;;;;;17.58;11.35;;;;;;;-6.98;100.00;93876.16;5011714;28;20053;-88
2022/03/12 05:58:55;;;;;;;15.45;10.05;;;;;;;-6.01;100.00;94008.16;5012536;28;20061;-87
2022/03/12 06:01:23;;;;;;;15.48;10.20;;;;;;;-5.86;100.00;94011.44;5010311;28;20056;-88
2022/03/12 06:03:55;;;;;;;18.55;12.80;;;;;;;-5.88;100.00;94001.53;5011694;28;20347;-88
2022/03/12 06:06:24;;;;;;;19.23;11.90;;;;;;;-5.87;100.00;93980.63;5011735;28;20046;-88
2022/03/12 06:08:51;;;;;;;21.20;12.52;;;;;;;-5.77;100.00;94016.72;5011393;28;20104;-88
2022/03/12 06:11:19;;;;;;;18.50;12.15;;;;;;;-5.79;100.00;94000.19;5018458;28;20045;-88
2022/03/12 06:14:17;;;;;;;20.85;12.00;;;;;;;-6.41;100.00;93948.75;5031792;28;20057;-89
2022/03/12 06:16:53;;;;;;;29.75;17.08;;;;;;;-6.39;100.00;93970.28;5025243;28;20512;-88
2022/03/12 06:22:50;;;;;;;23.00;14.38;;;;;;;-7.85;100.00;93839.25;5009993;28;20065;-88
2022/03/12 06:25:25;;;;;;;25.75;21.52;;;;;;;-6.63;100.00;94033.25;5011804;28;20100;-88
2022/03/12 06:27:56;;;;;;;17.40;12.23;;;;;;;-6.82;100.00;94032.66;5011662;28;20053;-88
2022/03/12 06:30:24;;;;;;;17.77;11.40;;;;;;;-6.79;100.00;94032.50;5012443;28;20054;-88
2022/03/12 06:33:01;;;;;;;;;;;;;;;;;;;;;
2022/03/12 06:35:30;;;;;;;16.77;11.73;;;;;;;-6.57;100.00;94040.41;5009126;28;20058;-88
2022/03/12 06:38:02;;;;;;;17.02;11.15;;;;;;;-6.44;100.00;94048.03;5011116;28;20049;-89
2022/03/12 06:40:32;;;;;;;17.58;11.80;;;;;;;-6.36;100.00;94050.13;5012034;28;20050;-90
2022/03/12 06:43:07;;;;;;;14.90;8.98;;;;;;;-6.11;100.00;94050.44;5011375;28;20057;-89
2022/03/12 06:45:48;;;;;;;13.32;9.05;;;;;;;-6.08;100.00;94062.75;5011758;28;20433;-89
2022/03/12 06:51:45;;;;;;;14.57;9.65;;;;;;;-6.32;100.00;93995.75;5003851;28;20187;-90
2022/03/12 06:54:16;;;;;;;17.88;11.27;;;;;;;-5.72;100.00;94056.50;5004966;28;20054;-89
2022/03/12 06:56:45;;;;;;;19.48;12.65;;;;;;;-5.37;100.00;94068.63;5011001;28;20057;-90
2022/03/12 06:59:21;;;;;;;15.65;10.52;;;;;;;-5.54;100.00;94073.84;5011218;28;20054;-88
2022/03/12 07:02:30;;;;;;;;;;;;;;;;;;;;;
2022/03/12 07:05:57;;;;;;;15.75;9.80;;;;;;;-6.41;100.00;93922.06;4912765;29;20064;-91
2022/03/12 07:09:22;;;;;;;;;;;;;;;;;;;;;
2022/03/12 07:16:00;;;;;;;15.38;10.48;;;;;;;-6.35;100.00;93944.22;5005160;28;20418;-89
2022/03/12 07:52:47;;;;;;;16.42;11.80;;;;;;;-5.82;91.29;93966.16;4828724;29;20057;-90
2022/03/12 07:56:02;;;;;;;16.40;12.13;;;;;;;-5.77;88.97;93945.84;4841697;29;20057;-93
2022/03/12 08:11:32;;;;;;;13.52;8.00;;;;;;;-5.65;82.57;93954.34;4872651;29;20517;-88
2022/03/12 08:14:34;;;;;;;12.27;8.23;;;;;;;-4.99;80.52;94071.44;4917598;29;20059;-91
2022/03/12 08:17:09;;;;;;;10.77;7.47;;;;;;;-5.54;78.40;93989.53;4888140;29;20049;-90
2022/03/12 08:29:17;;;;;;;17.48;11.02;;;;;;;-5.10;72.29;94001.91;4830311;29;20055;-90
2022/03/12 08:31:46;;;;;;;12.85;8.43;;;;;;;-4.13;71.85;94141.44;4970665;28;20086;-93
2022/03/12 08:34:15;;;;;;;14.57;8.48;;;;;;;-3.78;72.44;94134.16;4973337;28;20074;-94
2022/03/12 08:36:45;;;;;;;13.48;7.30;;;;;;;-3.42;76.71;94121.00;4989267;28;20367;-96
2022/03/12 08:39:18;;;;;;;16.63;9.07;;;;;;;-3.25;72.28;94130.72;5015535;28;20053;-94
2022/03/12 08:41:54;;;;;;;20.52;11.50;;;;;;;-3.73;73.82;94118.78;5013485;28;20112;-92
2022/03/12 08:44:22;;;;;;;24.63;14.90;;;;;;;-3.72;74.96;94109.53;5013705;28;20062;-95
2022/03/12 08:46:49;;;;;;;13.35;8.50;;;;;;;-3.65;76.70;94148.44;5013493;28;20053;-85
2022/03/12 08:49:19;;;;;;;13.55;9.50;;;;;;;-4.18;75.25;94137.50;5013346;28;20054;-90
2022/03/12 08:51:58;;;;;;;12.52;9.02;;;;;;;-4.11;74.91;94112.84;5013323;28;20052;-92
2022/03/12 08:54:27;;;;;;;11.10;7.80;;;;;;;-4.00;73.09;94136.41;5012875;28;20104;-89
2022/03/12 08:57:22;;;;;;;13.13;8.25;;;;;;;-4.60;72.86;94094.94;5013342;28;20053;-90
2022/03/12 09:06:55;;;;;;;10.38;7.10;;;;;;;-5.27;75.93;93983.72;4912715;28;20059;-88
2022/03/12 09:09:24;;;;;;;9.55;7.15;;;;;;;-3.80;75.72;94132.66;4999345;28;20042;-87
2022/03/12 09:12:08;;;;;;;;;;;;;;;;;;;;;
2022/03/12 09:14:46;;;;;;;11.63;7.25;;;;;;;-3.69;74.28;94149.53;4993356;28;20052;-90
2022/03/12 09:17:12;;;;;;;14.00;8.73;;;;;;;-3.68;74.42;94144.41;4993198;28;20558;-88
2022/03/12 09:19:51;;;;;;;18.02;11.07;;;;;;;-3.88;70.24;94125.63;4993327;28;20093;-90
2022/03/12 09:22:23;;;;;;;31.05;19.38;;;;;;;-3.93;70.99;94145.97;4993088;28;20046;-89
2022/03/12 09:24:49;;;;;;;24.73;16.35;;;;;;;-3.76;70.93;94156.63;4996645;28;20057;-88
2022/03/12 09:27:16;;;;;;;19.15;13.45;;;;;;;-3.77;73.37;94148.31;5012884;28;20470;-88
2022/03/12 09:29:57;;;;;;;;;;;;;;;;;;;;;
2022/03/12 09:32:24;;;;;;;27.23;16.08;;;;;;;-3.57;73.02;94147.94;5012337;28;20054;-88
2022/03/12 09:34:56;;;;;;;15.35;10.68;;;;;;;-3.46;71.46;94147.22;5012715;28;20062;-90
2022/03/12 09:37:31;;;;;;;11.93;6.97;;;;;;;-3.25;69.26;94152.53;4994286;28;20046;-90
2022/03/12 09:40:09;;;;;;;;;;;;;;;;;;;;;
2022/03/12 09:43:15;;;;;;;;;;;;;;;;;;;;;
2022/03/12 09:46:04;;;;;;;11.90;6.45;;;;;;;-3.04;65.68;94169.59;5007632;28;20056;-91
2022/03/12 09:49:25;;;;;;;9.70;7.53;;;;;;;-3.67;62.44;94120.09;5012467;28;20050;-93
2022/03/12 10:18:37;;;;;;;7.25;4.90;;;;;;;-3.83;61.27;94032.41;4837884;29;20050;-89
2022/03/12 10:21:05;;;;;;;10.27;6.57;;;;;;;-4.31;62.54;93988.66;4921275;28;20531;-87
2022/03/12 10:33:41;;;;;;;7.88;4.70;;;;;;;-2.84;57.46;94020.72;4881051;29;20591;-91
2022/03/12 10:40:12;;;;;;;7.68;5.40;;;;;;;-3.16;56.79;94023.75;4983155;28;20499;-89
2022/03/12 10:42:54;;;;;;;14.05;6.97;;;;;;;-2.90;57.70;94013.63;4974626;28;20482;-88
2022/03/12 10:45:27;;;;;;;8.05;5.30;;;;;;;-3.08;56.45;94025.75;4991647;28;20050;-87
2022/03/12 10:47:56;;;;;;;9.77;5.75;;;;;;;-2.74;56.24;94136.56;4991657;28;20093;-88
2022/03/12 10:50:26;;;;;;;11.80;6.90;;;;;;;-2.80;57.64;94128.63;4991687;28;20554;-88
2022/03/12 10:53:06;;;;;;;8.18;5.47;;;;;;;-2.89;55.84;94137.59;4991848;28;20047;-88
2022/03/12 10:55:34;;;;;;;12.63;6.93;;;;;;;-3.23;58.24;94113.81;4991680;28;20058;-88
2022/03/12 10:58:13;;;;;;;10.00;6.05;;;;;;;-3.65;58.13;94061.31;4995218;28;20145;-89
2022/03/12 11:00:47;;;;;;;14.85;8.73;;;;;;;-2.80;58.83;94126.09;5010268;28;20050;-92
2022/03/12 11:03:20;;;;;;;9.45;6.65;;;;;;;-2.83;57.28;94127.94;5011237;28;20056;-88
2022/03/12 11:05:54;;;;;;;6.82;5.13;;;;;;;-2.76;57.05;94104.88;5011312;28;20049;-88
2022/03/12 11:08:27;;;;;;;8.35;5.22;;;;;;;-2.79;57.74;94110.13;5011199;28;20054;-89
2022/03/12 11:10:57;;;;;;;8.63;5.35;;;;;;;-2.51;58.18;94105.69;5010860;28;20050;-89
2022/03/12 11:13:38;;;;;;;14.15;8.15;;;;;;;-2.11;59.38;94102.88;5011303;28;20137;-88
2022/03/12 11:16:07;;;;;;;9.70;5.47;;;;;;;-2.19;58.06;94095.88;5011005;28;20057;-87
2022/03/12 11:18:34;;;;;;;6.57;4.43;;;;;;;-2.38;56.45;94108.13;5010054;28;20042;-86
2022/03/12 11:21:01;;;;;;;12.63;7.80;;;;;;;-2.33;58.21;94096.84;5005728;28;20445;-87
2022/03/12 11:23:31;;;;;;;9.20;5.68;;;;;;;-2.59;56.35;94076.06;5010123;28;20096;-89
2022/03/12 11:26:05;;;;;;;23.00;13.85;;;;;;;-2.62;56.21;94094.66;5011011;28;20049;-86
2022/03/12 11:28:37;;;;;;;14.85;8.90;;;;;;;-2.52;54.81;94101.56;5010662;28;20053;-87
2022/03/12 11:31:06;;;;;;;16.60;10.18;;;;;;;-2.36;56.04;94093.75;5003314;28;20164;-90
2022/03/12 11:33:34;;;;;;;13.90;8.38;;;;;;;-2.38;54.76;94088.00;5010923;28;20053;-84
2022/03/12 11:36:10;;;;;;;5.28;4.20;;;;;;;-2.10;55.73;94091.06;5002678;28;20045;-86
2022/03/12 11:38:37;;;;;;;6.38;4.20;;;;;;;-2.15;55.95;94086.38;5010852;28;20461;-85
2022/03/12 11:41:06;;;;;;;12.27;8.13;;;;;;;-2.03;54.62;94089.75;5010897;28;20081;-86
2022/03/12 11:43:41;;;;;;;8.63;5.43;;;;;;;-1.47;58.24;94083.19;5010804;28;20104;-85
2022/03/12 11:46:12;;;;;;;8.48;5.50;;;;;;;-1.02;60.16;94072.25;5010620;28;20050;-84
2022/03/12 11:48:41;;;;;;;7.35;4.72;;;;;;;-1.16;53.46;94082.59;5010671;28;20046;-84
2022/03/12 11:51:23;;;;;;;8.63;4.90;;;;;;;-1.91;53.80;94073.75;5010681;28;20049;-87
2022/03/12 11:53:52;;;;;;;6.35;4.30;;;;;;;-2.06;55.43;94077.34;5010619;28;20078;-89
2022/03/12 11:56:20;;;;;;;7.32;4.63;;;;;;;-2.19;57.30;94079.94;5011387;28;20093;-85
2022/03/12 11:58:55;;;;;;;8.23;4.60;;;;;;;-2.18;58.23;94048.84;5011378;28;20053;-88
2022/03/12 12:01:23;;;;;;;7.57;4.97;;;;;;;-1.71;55.86;94093.34;5013539;28;20065;-86
2022/03/12 12:03:53;;;;;;;9.00;5.30;;;;;;;-1.59;55.18;94084.88;5009409;28;20053;-86
2022/03/12 12:06:21;;;;;;;7.13;5.00;;;;;;;-1.91;55.12;94096.41;5010304;28;20058;-86
2022/03/12 12:08:48;;;;;;;6.35;4.45;;;;;;;-1.72;58.45;94082.47;5011009;28;20041;-84
2022/03/12 12:11:15;;;;;;;8.63;6.13;;;;;;;-1.29;55.94;94086.03;5016820;28;20049;-85
2022/03/12 12:13:44;;;;;;;11.70;7.30;;;;;;;-1.42;55.31;94080.31;5018969;28;20056;-85
2022/03/12 12:16:15;;;;;;;13.25;6.43;;;;;;;-1.66;56.19;94092.06;5010487;28;20512;-85
2022/03/12 12:18:42;;;;;;;7.45;5.10;;;;;;;-1.98;55.10;94080.13;5010584;28;20058;-89
2022/03/12 12:21:16;;;;;;;8.48;5.75;;;;;;;-1.99;55.29;94097.88;5010226;28;20092;-88
2022/03/12 12:23:43;;;;;;;6.80;5.15;;;;;;;-1.82;56.38;94094.13;5010091;28;20046;-87
2022/03/12 12:26:13;;;;;;;8.25;5.43;;;;;;;-2.21;55.66;94092.66;5010411;28;20054;-84
2022/03/12 12:28:48;;;;;;;7.85;5.10;;;;;;;-2.39;55.26;94097.28;5010373;28;20100;-83
2022/03/12 12:31:20;;;;;;;8.15;5.47;;;;;;;-2.19;55.27;94092.53;5010396;28;20050;-85
2022/03/12 12:33:47;;;;;;;9.30;6.40;;;;;;;-2.18;56.36;94099.19;5010393;28;20054;-85
2022/03/12 12:36:15;;;;;;;9.48;4.90;;;;;;;-2.22;56.53;94107.88;5012519;28;20053;-84
2022/03/12 12:39:02;;;;;;;8.27;5.50;;;;;;;-1.99;56.18;94095.34;5013620;28;20050;-84
2022/03/12 12:41:51;;;;;;;9.27;5.75;;;;;;;-2.21;55.31;94104.44;5013696;28;20660;-87
2022/03/12 12:44:33;;;;;;;10.65;7.15;;;;;;;-2.11;56.24;94097.03;5013724;28;20085;-86
2022/03/12 12:47:02;;;;;;;8.00;5.72;;;;;;;-1.90;55.39;94103.03;5013298;28;20058;-81
2022/03/12 12:49:35;;;;;;;8.23;5.63;;;;;;;-2.26;57.13;94097.22;5013703;28;20092;-82
2022/03/12 12:52:02;;;;;;;7.25;5.43;;;;;;;-1.95;56.92;94096.75;5013493;28;20564;-83
2022/03/12 12:54:57;;;;;;;9.32;6.28;;;;;;;-1.58;59.52;94094.03;5013551;28;20049;-84
2022/03/12 12:57:39;;;;;;;8.32;5.97;;;;;;;-1.21;57.21;94098.06;5013532;28;20053;-85
2022/03/12 13:00:32;;;;;;;10.75;7.32;;;;;;;-1.24;57.52;94099.09;5013457;28;20050;-92
2022/03/12 13:03:04;;;;;;;8.65;5.50;;;;;;;-1.06;54.05;94101.16;5013111;28;20413;-85
2022/03/12 13:05:50;;;;;;;9.73;6.60;;;;;;;-1.23;54.88;94100.72;5013077;28;20073;-86
2022/03/12 13:08:18;;;;;;;7.50;5.50;;;;;;;-1.59;55.08;94097.47;5013243;28;20125;-84
2022/03/12 13:10:45;;;;;;;9.15;5.38;;;;;;;-1.52;56.40;94090.28;5015854;28;20096;-85
2022/03/12 13:13:15;;;;;;;9.18;6.10;;;;;;;-0.96;55.58;94091.94;5033008;28;20056;-85
2022/03/12 13:15:44;;;;;;;8.65;5.88;;;;;;;-1.25;52.25;94074.00;5032748;28;20057;-86
2022/03/12 13:18:42;;;;;;;10.15;6.57;;;;;;;-1.41;53.86;94072.63;5032136;28;20147;-86
2022/03/12 13:21:34;;;;;;;9.93;6.20;;;;;;;-1.31;54.63;94069.44;4999022;28;20053;-87
2022/03/12 13:24:01;;;;;;;8.55;5.90;;;;;;;-1.08;53.40;94085.31;4976491;28;20058;-85
2022/03/12 13:26:28;;;;;;;8.38;5.80;;;;;;;-1.50;55.64;94083.41;5014637;28;20056;-85
2022/03/12 13:28:58;;;;;;;10.10;6.30;;;;;;;-2.02;56.41;94054.38;5012698;28;20053;-87
2022/03/12 13:31:31;;;;;;;11.60;7.32;;;;;;;-1.71;55.03;94086.56;5012763;28;20144;-88
2022/03/12 13:34:02;;;;;;;10.48;6.30;;;;;;;-2.10;55.22;94060.88;5011756;28;20533;-87
2022/03/12 13:36:32;;;;;;;9.20;5.90;;;;;;;-1.91;55.93;94090.56;5011453;28;20414;-87
2022/03/12 13:38:59;;;;;;;7.47;5.70;;;;;;;-1.52;57.13;94073.41;5012280;28;20819;-85
2022/03/12 13:41:27;;;;;;;11.30;7.03;;;;;;;-1.60;57.08;94080.75;5012364;28;20112;-85
2022/03/12 13:44:09;;;;;;;13.40;8.50;;;;;;;-1.46;55.81;94078.94;5012593;28;20711;-90
2022/03/12 13:46:44;;;;;;;23.00;11.57;;;;;;;-2.30;55.37;94061.38;5012418;28;20054;-93
2022/03/12 13:49:14;;;;;;;36.25;18.67;;;;;;;-2.17;57.32;94076.41;5012220;28;20511;-85
2022/03/12 13:52:10;;;;;;;26.23;14.55;;;;;;;-1.90;57.36;94074.56;5015048;28;20437;-86
2022/03/12 13:54:39;;;;;;;15.35;7.45;;;;;;;-3.02;55.90;93954.16;5013960;28;20050;-85
2022/03/12 13:57:15;;;;;;;8.85;5.82;;;;;;;-2.38;56.55;94065.38;5014284;28;20061;-90
2022/03/12 13:59:51;;;;;;;;;;;;;;;-2.33;56.77;94060.81;5012201;28;20409;-86